Somerville, Texas
Current Conditions -  °F | °C
As of 4:55 AM on Sunday 23 Nov 2014 (Local Time) from K11R Reporting Station
Overcast Overcast  
Wind Chill: 60°   Ceiling: 1500
Heat Index: 60°   Visibility: 10mi
Dew Point: 60°   Wind: 6mph
Humidity: 97%   Direction: 250°WSW
Pressure: 29.66"   Gusts: NA
Location:  30.35°N, 96.53°W
Report Text: K11R 231055Z AUTO 25005KT 10SM BKN015 OVC020 16/15 A2966 RMK AO2 T01580153
Loading
Personal Weather Stations






























Interactive Weather Map New forecast layout! Learn more

10-Day Weather Forecast

Advertisements
Track Severe Weather on mobile